createdAt,value
2022-08-14T00:01:10.318Z,6.93
2022-08-14T00:03:40.589Z,8.15
2022-08-14T00:06:25.782Z,7.93
2022-08-14T00:08:55.489Z,7.32
2022-08-14T00:11:26.024Z,6.53
2022-08-14T00:13:55.218Z,5.60
2022-08-14T00:16:40.864Z,5.82
2022-08-14T00:19:19.565Z,5.97
2022-08-14T00:21:51.130Z,5.72
2022-08-14T00:24:28.180Z,5.97
2022-08-14T00:26:55.935Z,6.15
2022-08-14T00:29:25.280Z,6.60
2022-08-14T00:31:56.380Z,6.82
2022-08-14T00:34:37.215Z,6.80
2022-08-14T00:37:09.384Z,7.00
2022-08-14T00:39:35.702Z,6.78
2022-08-14T00:42:02.950Z,6.68
2022-08-14T00:44:32.257Z,6.38
2022-08-14T00:47:00.905Z,6.55
2022-08-14T00:49:28.626Z,6.50
2022-08-14T00:51:56.713Z,7.00
2022-08-14T00:54:25.996Z,6.97
2022-08-14T00:56:55.181Z,7.13
2022-08-14T00:59:23.202Z,7.82
2022-08-14T01:01:51.198Z,7.57
2022-08-14T01:04:50.864Z,7.07
2022-08-14T01:07:08.127Z,8.30
2022-08-14T01:09:35.650Z,7.85
2022-08-14T01:12:03.504Z,7.32
2022-08-14T01:14:30.011Z,7.32
2022-08-14T01:16:56.680Z,7.35
2022-08-14T01:19:43.405Z,7.15
2022-08-14T01:22:12.570Z,7.32
2022-08-14T01:24:39.388Z,7.90
2022-08-14T01:27:07.251Z,7.57
2022-08-14T01:29:59.121Z,8.23
2022-08-14T01:32:24.323Z,8.48
2022-08-14T01:35:19.129Z,8.27
2022-08-14T01:37:44.412Z,8.27
2022-08-14T01:40:11.627Z,8.45
2022-08-14T01:42:42.751Z,8.30
2022-08-14T01:45:17.902Z,8.40
2022-08-14T01:47:51.956Z,8.63
2022-08-14T01:50:29.403Z,8.40
2022-08-14T01:52:59.986Z,8.73
2022-08-14T01:55:31.539Z,8.60
2022-08-14T01:58:18.544Z,8.90
2022-08-14T02:00:48.212Z,9.30
2022-08-14T02:03:16.113Z,9.07
2022-08-14T02:05:42.889Z,9.00
2022-08-14T02:08:10.445Z,8.57
2022-08-14T02:10:46.308Z,8.77
2022-08-14T02:13:13.985Z,9.18
2022-08-14T02:15:43.473Z,9.00
2022-08-14T02:18:10.299Z,9.35
2022-08-14T02:20:39.336Z,9.60
2022-08-14T02:23:06.633Z,8.45
2022-08-14T02:25:34.747Z,9.25
2022-08-14T02:28:23.308Z,8.63
2022-08-14T02:30:48.048Z,9.27
2022-08-14T02:33:18.824Z,9.20
2022-08-14T02:35:48.260Z,9.07
2022-08-14T02:38:29.429Z,8.15
2022-08-14T02:40:58.071Z,8.13
2022-08-14T02:43:24.634Z,8.35
2022-08-14T02:46:03.282Z,7.65
2022-08-14T02:49:04.410Z,7.45
2022-08-14T02:51:22.308Z,7.05
2022-08-14T02:53:49.701Z,7.10
2022-08-14T02:57:13.983Z,8.18
2022-08-14T02:59:07.727Z,7.70
2022-08-14T03:01:43.302Z,6.97
2022-08-14T03:04:17.700Z,7.20
2022-08-14T03:06:57.637Z,7.07
2022-08-14T03:09:25.005Z,6.90
2022-08-14T03:12:08.986Z,7.50
2022-08-14T03:14:42.947Z,7.13
2022-08-14T03:17:10.304Z,7.13
2022-08-14T03:19:36.568Z,8.00
2022-08-14T03:22:04.309Z,7.00
2022-08-14T03:24:36.647Z,7.22
2022-08-14T03:27:06.003Z,7.97
2022-08-14T03:29:32.904Z,7.38
2022-08-14T03:31:59.355Z,7.53
2022-08-14T03:34:48.266Z,7.38
2022-08-14T03:37:37.850Z,8.07
2022-08-14T03:40:00.468Z,7.85
2022-08-14T03:42:35.674Z,8.10
2022-08-14T03:45:18.496Z,8.15
2022-08-14T03:47:58.402Z,8.63
2022-08-14T03:50:27.914Z,8.43
2022-08-14T03:53:00.658Z,7.95
2022-08-14T03:55:28.353Z,7.95
2022-08-14T03:57:56.797Z,8.90
2022-08-14T04:00:40.377Z,8.20
2022-08-14T04:03:09.617Z,8.40
2022-08-14T04:05:42.758Z,8.48
2022-08-14T04:08:22.785Z,8.90
2022-08-14T04:10:57.287Z,9.02
2022-08-14T04:13:23.825Z,8.43
2022-08-14T04:15:56.387Z,8.52
2022-08-14T04:18:28.021Z,7.90
2022-08-14T04:20:55.803Z,8.48
2022-08-14T04:23:23.408Z,7.75
2022-08-14T04:25:53.902Z,8.10
2022-08-14T04:29:07.369Z,7.80
2022-08-14T04:31:07.010Z,8.70
2022-08-14T04:33:35.436Z,8.32
2022-08-14T04:36:03.801Z,8.73
2022-08-14T04:38:49.437Z,8.68
2022-08-14T04:41:34.578Z,8.70
2022-08-14T04:44:04.844Z,8.43
2022-08-14T04:46:54.679Z,8.30
2022-08-14T04:49:19.992Z,9.95
2022-08-14T04:51:55.994Z,9.10
2022-08-14T04:54:26.252Z,8.57
2022-08-14T04:56:54.932Z,8.48
2022-08-14T04:59:22.333Z,8.38
2022-08-14T05:01:55.081Z,8.00
2022-08-14T05:04:24.855Z,9.05
2022-08-14T05:06:53.624Z,9.38
2022-08-14T05:09:21.598Z,8.82
2022-08-14T05:11:48.095Z,9.13
2022-08-14T05:14:17.110Z,9.05
2022-08-14T05:17:02.421Z,9.00
2022-08-14T05:19:29.867Z,9.70
2022-08-14T05:22:16.100Z,9.93
2022-08-14T05:24:44.065Z,10.20
2022-08-14T05:27:10.366Z,10.90
2022-08-14T05:29:37.108Z,11.55
2022-08-14T05:32:07.378Z,11.50
2022-08-14T05:34:33.909Z,12.68
2022-08-14T05:37:03.207Z,12.57
2022-08-14T05:39:31.317Z,12.52
2022-08-14T05:41:58.013Z,12.05
2022-08-14T05:44:29.220Z,12.40
2022-08-14T05:46:56.414Z,13.30
2022-08-14T05:49:22.960Z,13.90
2022-08-14T05:51:52.439Z,13.40
2022-08-14T05:54:26.667Z,14.43
2022-08-14T05:56:54.195Z,13.82
2022-08-14T05:59:21.574Z,14.05
2022-08-14T06:02:03.208Z,13.45
2022-08-14T06:04:32.211Z,14.40
2022-08-14T06:06:58.503Z,14.95
2022-08-14T06:09:24.799Z,14.45
2022-08-14T06:11:52.020Z,14.73
2022-08-14T06:14:23.993Z,16.00
2022-08-14T06:16:53.162Z,15.02
2022-08-14T06:19:19.813Z,14.75
2022-08-14T06:21:46.083Z,14.73
2022-08-14T06:24:18.776Z,14.48
2022-08-14T06:26:54.090Z,13.93
2022-08-14T06:29:22.840Z,13.00
2022-08-14T06:32:00.040Z,13.40
2022-08-14T06:35:10.329Z,13.80
2022-08-14T06:37:12.904Z,13.68
2022-08-14T06:39:42.986Z,12.82
2022-08-14T06:42:22.307Z,12.07
2022-08-14T06:44:57.599Z,12.90
2022-08-14T06:47:24.754Z,13.10
2022-08-14T06:49:57.663Z,12.98
2022-08-14T06:52:24.335Z,13.43
2022-08-14T06:54:51.199Z,13.32
2022-08-14T06:57:18.183Z,13.32
2022-08-14T06:59:44.437Z,13.90
2022-08-14T07:02:29.355Z,13.13
2022-08-14T07:05:20.924Z,13.25
2022-08-14T07:07:49.183Z,12.80
2022-08-14T07:10:17.488Z,12.88
2022-08-14T07:13:00.987Z,12.45
2022-08-14T07:15:32.510Z,12.18
2022-08-14T07:18:00.381Z,11.87
2022-08-14T07:20:31.397Z,11.75
2022-08-14T07:23:06.733Z,11.40
2022-08-14T07:25:37.677Z,11.50
2022-08-14T07:28:12.903Z,10.63
2022-08-14T07:30:50.992Z,9.63
2022-08-14T07:33:18.671Z,10.63
2022-08-14T07:35:58.373Z,9.57
2022-08-14T07:38:32.056Z,9.68
2022-08-14T07:41:02.087Z,8.95
2022-08-14T07:43:28.518Z,8.85
2022-08-14T07:45:54.826Z,8.18
2022-08-14T07:48:25.006Z,8.52
2022-08-14T07:50:52.132Z,8.93
2022-08-14T07:53:19.292Z,8.77
2022-08-14T07:56:00.470Z,8.73
2022-08-14T07:58:39.049Z,7.75
2022-08-14T08:01:18.965Z,8.00
2022-08-14T08:03:52.008Z,8.25
2022-08-14T08:06:26.330Z,8.30
2022-08-14T08:09:01.094Z,7.78
2022-08-14T08:11:34.614Z,7.78
2022-08-14T08:14:04.426Z,7.32
2022-08-14T08:16:31.409Z,7.53
2022-08-14T08:19:02.937Z,7.40
2022-08-14T08:21:39.026Z,7.35
2022-08-14T08:24:10.407Z,7.10
2022-08-14T08:26:36.702Z,6.82
2022-08-14T08:29:06.144Z,7.45
2022-08-14T08:31:35.166Z,6.72
2022-08-14T08:36:29.852Z,6.68
2022-08-14T08:39:17.879Z,6.03
2022-08-14T08:46:59.247Z,5.72
2022-08-14T08:49:36.132Z,5.72
2022-08-14T08:52:05.748Z,6.43
2022-08-14T08:54:32.017Z,6.30
2022-08-14T08:56:59.712Z,5.82
2022-08-14T08:59:31.134Z,5.72
2022-08-14T09:01:58.753Z,5.72
2022-08-14T09:04:27.708Z,5.70
2022-08-14T09:07:08.898Z,5.80
2022-08-14T09:09:54.369Z,5.85
2022-08-14T09:12:26.997Z,5.72
2022-08-14T09:14:53.856Z,5.68
2022-08-14T09:17:20.174Z,5.50
2022-08-14T09:19:52.191Z,5.63
2022-08-14T09:22:35.603Z,5.70
2022-08-14T09:25:06.992Z,5.38
2022-08-14T09:27:34.079Z,5.77
2022-08-14T09:30:01.456Z,5.05
2022-08-14T09:32:59.582Z,5.18
2022-08-14T09:35:24.135Z,5.47
2022-08-14T09:38:04.841Z,5.10
2022-08-14T09:40:54.681Z,5.20
2022-08-14T09:43:38.430Z,5.55
2022-08-14T09:46:07.516Z,4.80
2022-08-14T09:48:33.952Z,4.80
2022-08-14T09:54:18.882Z,4.55
2022-08-14T09:56:30.505Z,4.80
2022-08-14T09:58:59.052Z,5.18
2022-08-14T10:01:35.414Z,5.60
2022-08-14T10:04:06.239Z,5.18
2022-08-14T10:06:45.037Z,4.90
2022-08-14T10:09:12.118Z,4.63
2022-08-14T10:11:58.729Z,4.57
2022-08-14T10:14:34.723Z,5.00
2022-08-14T10:17:05.225Z,4.22
2022-08-14T10:19:35.518Z,4.60
2022-08-14T10:24:51.068Z,4.25
2022-08-14T10:27:19.045Z,4.10
2022-08-14T10:29:51.610Z,4.00
2022-08-14T10:32:29.035Z,4.20
2022-08-14T10:35:13.498Z,4.70
2022-08-14T10:37:50.539Z,3.95
2022-08-14T10:40:43.584Z,4.38
2022-08-14T10:43:18.315Z,3.97
2022-08-14T10:46:03.522Z,4.10
2022-08-14T10:48:43.405Z,3.88
2022-08-14T10:51:11.983Z,4.10
2022-08-14T10:53:40.079Z,3.90
2022-08-14T10:56:21.798Z,4.00
2022-08-14T10:59:08.151Z,4.00
2022-08-14T11:01:41.015Z,3.90
2022-08-14T11:04:19.425Z,3.25
2022-08-14T11:06:52.145Z,3.50
2022-08-14T11:09:18.386Z,3.40
2022-08-14T11:11:47.626Z,3.80
2022-08-14T11:14:22.635Z,3.50
2022-08-14T11:16:53.366Z,4.05
2022-08-14T11:19:21.178Z,3.60
2022-08-14T11:21:51.936Z,3.88
2022-08-14T11:24:50.922Z,3.92
2022-08-14T11:27:11.344Z,3.80
2022-08-14T11:29:39.109Z,4.05
2022-08-14T11:32:06.578Z,4.03
2022-08-14T11:34:36.164Z,3.70
2022-08-14T11:39:45.587Z,3.70
2022-08-14T11:42:57.912Z,3.33
2022-08-14T11:45:10.947Z,3.28
2022-08-14T11:48:10.707Z,3.60
2022-08-14T11:50:37.512Z,3.40
2022-08-14T11:53:05.035Z,3.88
2022-08-14T11:55:35.318Z,3.50
2022-08-14T11:58:06.193Z,3.47
2022-08-14T12:00:39.598Z,3.25
2022-08-14T12:03:14.513Z,3.40
2022-08-14T12:05:42.896Z,3.30
2022-08-14T12:08:13.347Z,3.08
2022-08-14T12:10:43.480Z,3.53
2022-08-14T12:13:11.158Z,4.88
2022-08-14T12:15:38.120Z,3.17
2022-08-14T12:18:17.906Z,3.17
2022-08-14T12:20:52.452Z,3.35
2022-08-14T12:23:21.577Z,3.53
2022-08-14T12:26:01.666Z,3.50
2022-08-14T12:28:59.769Z,3.38
2022-08-14T12:31:21.667Z,3.20
2022-08-14T12:34:01.134Z,3.40
2022-08-14T12:36:30.463Z,3.28
2022-08-14T12:38:57.807Z,3.40
2022-08-14T12:41:28.040Z,3.38
2022-08-14T12:43:57.281Z,3.40
2022-08-14T12:46:27.391Z,3.20
2022-08-14T12:48:55.208Z,3.50
2022-08-14T12:51:25.203Z,3.70
2022-08-14T12:53:54.453Z,3.33
2022-08-14T12:56:34.068Z,3.28
2022-08-14T12:59:01.140Z,3.50
2022-08-14T13:01:31.152Z,3.33
2022-08-14T13:04:07.136Z,3.58
2022-08-14T13:06:37.631Z,3.20
2022-08-14T13:09:04.695Z,3.20
2022-08-14T13:11:44.892Z,3.30
2022-08-14T13:14:16.975Z,3.03
2022-08-14T13:16:44.588Z,3.00
2022-08-14T13:19:18.363Z,3.00
2022-08-14T13:24:33.669Z,3.40
2022-08-14T13:27:04.050Z,3.15
2022-08-14T13:29:32.060Z,3.20
2022-08-14T13:31:58.651Z,3.10
2022-08-14T13:34:26.170Z,3.10
2022-08-14T13:36:58.947Z,3.35
2022-08-14T13:39:31.412Z,3.35
2022-08-14T13:42:08.188Z,2.85
2022-08-14T13:44:35.022Z,3.35
2022-08-14T13:47:06.550Z,3.00
2022-08-14T13:49:37.432Z,3.22
2022-08-14T13:52:04.333Z,3.15
2022-08-14T13:54:55.537Z,3.40
2022-08-14T13:57:30.334Z,3.25
2022-08-14T14:00:00.215Z,3.30
2022-08-14T14:05:00.575Z,3.30
2022-08-14T14:07:32.042Z,3.20
2022-08-14T14:10:06.453Z,3.15
2022-08-14T14:12:55.597Z,3.30
2022-08-14T14:15:28.702Z,3.50
2022-08-14T14:18:29.426Z,3.45
2022-08-14T14:20:55.793Z,3.50
2022-08-14T14:23:23.407Z,3.35
2022-08-14T14:25:56.966Z,3.80
2022-08-14T14:28:26.942Z,3.40
2022-08-14T14:30:57.197Z,3.50
2022-08-14T14:33:46.611Z,3.50
2022-08-14T14:36:17.481Z,3.38
2022-08-14T14:38:51.226Z,3.33
2022-08-14T14:41:20.521Z,3.72
2022-08-14T14:43:51.673Z,3.40
2022-08-14T14:46:18.975Z,3.58
2022-08-14T14:48:53.830Z,3.42
2022-08-14T14:51:21.792Z,3.67
2022-08-14T14:53:48.159Z,3.90
2022-08-14T14:56:50.222Z,3.75
2022-08-14T14:59:00.953Z,3.90
2022-08-14T15:01:27.329Z,3.70
2022-08-14T15:03:54.286Z,3.55
2022-08-14T15:06:21.573Z,3.75
2022-08-14T15:08:56.907Z,4.03
2022-08-14T15:11:26.405Z,3.30
2022-08-14T15:13:56.830Z,3.83
2022-08-14T15:16:23.172Z,3.50
2022-08-14T15:18:51.182Z,3.80
2022-08-14T15:21:19.191Z,3.83
2022-08-14T15:23:47.919Z,3.80
2022-08-14T15:26:23.892Z,3.50
2022-08-14T15:29:02.733Z,3.90
2022-08-14T15:31:31.078Z,3.80
2022-08-14T15:34:43.056Z,3.63
2022-08-14T15:36:59.922Z,3.22
2022-08-14T15:39:29.282Z,3.80
2022-08-14T15:42:03.347Z,3.30
2022-08-14T15:44:34.299Z,3.72
2022-08-14T15:47:01.095Z,3.53
2022-08-14T15:49:34.484Z,3.70
2022-08-14T15:52:04.070Z,3.53
2022-08-14T15:54:31.895Z,3.50
2022-08-14T15:56:59.278Z,3.72
2022-08-14T15:59:26.109Z,3.35
2022-08-14T16:01:55.076Z,3.75
2022-08-14T16:04:22.750Z,3.72
2022-08-14T16:06:55.451Z,3.90
2022-08-14T16:09:21.928Z,4.00
2022-08-14T16:11:50.667Z,3.60
2022-08-14T16:14:20.619Z,3.72
2022-08-14T16:16:51.292Z,3.80
2022-08-14T16:19:26.461Z,3.75
2022-08-14T16:22:02.691Z,3.95
2022-08-14T16:25:00.340Z,3.90
2022-08-14T16:27:38.997Z,3.70
2022-08-14T16:30:10.871Z,3.72
2022-08-14T16:32:55.113Z,3.97
2022-08-14T16:35:23.426Z,4.07
2022-08-14T16:37:49.814Z,3.90
2022-08-14T16:40:16.159Z,3.80
2022-08-14T16:43:03.998Z,3.88
2022-08-14T16:45:30.590Z,3.67
2022-08-14T16:47:59.850Z,3.95
2022-08-14T16:50:42.959Z,3.80
2022-08-14T16:53:10.496Z,3.65
2022-08-14T16:55:53.834Z,3.55
2022-08-14T16:58:29.931Z,3.72
2022-08-14T17:01:22.438Z,4.00
2022-08-14T17:04:01.095Z,3.83
2022-08-14T17:06:37.761Z,4.93
2022-08-14T17:09:05.362Z,3.83
2022-08-14T17:11:32.887Z,4.20
2022-08-14T17:14:04.977Z,4.30
2022-08-14T17:16:35.889Z,3.90
2022-08-14T17:19:05.291Z,4.38
2022-08-14T17:21:35.356Z,4.07
2022-08-14T17:24:56.344Z,4.10
2022-08-14T17:26:55.207Z,4.10
2022-08-14T17:29:22.097Z,3.88
2022-08-14T17:31:57.875Z,4.22
2022-08-14T17:34:25.996Z,4.25
2022-08-14T17:36:57.082Z,4.18
2022-08-14T17:39:27.992Z,4.30
2022-08-14T17:42:13.471Z,4.50
2022-08-14T17:44:45.405Z,4.63
2022-08-14T17:47:13.419Z,4.68
2022-08-14T17:49:46.158Z,4.40
2022-08-14T17:52:17.217Z,4.40
2022-08-14T17:54:47.433Z,4.70
2022-08-14T17:57:20.599Z,4.45
2022-08-14T17:59:49.965Z,4.15
2022-08-14T18:02:17.910Z,4.15
2022-08-14T18:04:44.938Z,4.80
2022-08-14T18:07:50.635Z,4.53
2022-08-14T18:10:51.775Z,4.97
2022-08-14T18:12:47.874Z,5.45
2022-08-14T18:15:17.674Z,5.03
2022-08-14T18:17:52.866Z,4.80
2022-08-14T18:21:43.050Z,4.85
2022-08-14T18:23:07.826Z,4.70
2022-08-14T18:25:47.094Z,5.20
2022-08-14T18:28:16.149Z,4.63
2022-08-14T18:30:58.094Z,4.45
2022-08-14T18:33:25.344Z,4.55
2022-08-14T18:35:59.318Z,4.63
2022-08-14T18:38:45.639Z,4.60
2022-08-14T18:41:25.276Z,4.50
2022-08-14T18:44:03.818Z,4.40
2022-08-14T18:47:01.035Z,4.70
2022-08-14T18:49:16.489Z,4.78
2022-08-14T18:51:45.529Z,4.55
2022-08-14T18:54:26.485Z,4.70
2022-08-14T18:56:59.319Z,5.40
2022-08-14T18:59:40.298Z,5.00
2022-08-14T19:02:30.433Z,4.85
2022-08-14T19:04:57.647Z,5.20
2022-08-14T19:07:25.759Z,5.38
2022-08-14T19:10:05.842Z,5.90
2022-08-14T19:12:50.646Z,6.80
2022-08-14T19:15:19.176Z,6.53
2022-08-14T19:18:14.936Z,6.45
2022-08-14T19:21:12.996Z,6.22
2022-08-14T19:23:43.227Z,6.63
2022-08-14T19:26:33.703Z,6.63
2022-08-14T19:31:37.021Z,6.22
2022-08-14T19:34:08.813Z,6.63
2022-08-14T19:37:04.796Z,6.50
2022-08-14T19:40:15.094Z,6.30
2022-08-14T19:42:46.812Z,6.28
2022-08-14T19:45:14.121Z,6.47
2022-08-14T19:47:41.511Z,6.32
2022-08-14T19:50:37.953Z,6.50
2022-08-14T19:53:12.070Z,7.30
2022-08-14T19:55:47.155Z,7.10
2022-08-14T19:58:14.907Z,6.85
2022-08-14T20:00:52.211Z,6.90
2022-08-14T20:03:23.276Z,6.70
2022-08-14T20:06:03.338Z,7.55
2022-08-14T20:10:58.501Z,7.18
2022-08-14T20:12:00.697Z,7.80
2022-08-14T20:14:28.130Z,7.00
2022-08-14T20:17:04.736Z,7.03
2022-08-14T20:19:37.871Z,7.43
2022-08-14T20:22:36.408Z,6.70
2022-08-14T20:24:54.984Z,6.95
2022-08-14T20:27:33.505Z,6.97
2022-08-14T20:30:34.593Z,6.88
2022-08-14T20:33:04.444Z,7.07
2022-08-14T20:35:43.588Z,8.23
2022-08-14T20:38:31.885Z,7.65
2022-08-14T20:41:01.210Z,7.65
2022-08-14T20:43:47.346Z,7.80
2022-08-14T20:46:23.423Z,8.15
2022-08-14T20:48:57.076Z,8.25
2022-08-14T20:51:25.182Z,8.07
2022-08-14T20:53:55.934Z,8.18
2022-08-14T20:56:29.938Z,8.18
2022-08-14T20:58:56.668Z,8.82
2022-08-14T21:01:23.145Z,8.80
2022-08-14T21:03:57.955Z,8.75
2022-08-14T21:06:27.288Z,9.25
2022-08-14T21:08:58.498Z,8.73
2022-08-14T21:11:25.644Z,9.13
2022-08-14T21:14:20.784Z,9.32
2022-08-14T21:16:45.070Z,8.57
2022-08-14T21:19:26.186Z,9.32
2022-08-14T21:21:54.784Z,9.10
2022-08-14T21:24:38.628Z,8.90
2022-08-14T21:27:13.218Z,9.43
2022-08-14T21:29:53.582Z,9.18
2022-08-14T21:32:33.954Z,10.35
2022-08-14T21:35:01.926Z,10.13
2022-08-14T21:37:34.476Z,10.43
2022-08-14T21:40:01.659Z,9.88
2022-08-14T21:42:28.187Z,8.90
2022-08-14T21:44:55.669Z,9.77
2022-08-14T21:47:23.445Z,9.95
2022-08-14T21:49:50.792Z,9.23
2022-08-14T21:52:51.904Z,9.90
2022-08-14T21:55:09.161Z,10.40
2022-08-14T21:57:53.658Z,9.48
2022-08-14T22:00:34.725Z,9.80
2022-08-14T22:03:04.435Z,10.55
2022-08-14T22:05:30.956Z,10.77
2022-08-14T22:07:58.270Z,10.98
2022-08-14T22:10:24.731Z,11.30
2022-08-14T22:13:00.606Z,11.40
2022-08-14T22:15:28.308Z,11.75
2022-08-14T22:17:55.212Z,11.82
2022-08-14T22:20:22.801Z,11.60
2022-08-14T22:22:49.081Z,11.35
2022-08-14T22:25:22.603Z,12.20
2022-08-14T22:28:00.208Z,11.25
2022-08-14T22:30:26.717Z,11.95
2022-08-14T22:32:57.894Z,12.65
2022-08-14T22:35:24.718Z,12.07
2022-08-14T22:38:01.378Z,12.13
2022-08-14T22:40:58.567Z,12.23
2022-08-14T22:43:15.188Z,12.45
2022-08-14T22:45:42.147Z,12.55
2022-08-14T22:48:22.328Z,12.55
2022-08-14T22:50:53.751Z,12.15
2022-08-14T22:53:20.569Z,13.45
2022-08-14T22:55:47.335Z,12.75
2022-08-14T22:58:17.469Z,12.55
2022-08-14T23:03:17.342Z,12.57
2022-08-14T23:05:52.792Z,12.77
2022-08-14T23:08:59.554Z,12.30
2022-08-14T23:11:09.940Z,12.30
2022-08-14T23:13:39.041Z,11.27
2022-08-14T23:16:06.444Z,11.85
2022-08-14T23:18:32.715Z,12.18
2022-08-14T23:20:59.009Z,12.60
2022-08-14T23:23:26.755Z,12.80
2022-08-14T23:26:00.381Z,12.98
2022-08-14T23:28:35.044Z,12.98
2022-08-14T23:31:33.498Z,12.68
2022-08-14T23:34:01.898Z,12.60
2022-08-14T23:36:37.890Z,13.70
2022-08-14T23:39:19.577Z,13.23
2022-08-14T23:41:52.352Z,12.57
2022-08-14T23:44:20.538Z,12.43
2022-08-14T23:46:49.180Z,12.95
2022-08-14T23:49:15.722Z,12.90
2022-08-14T23:51:42.394Z,13.13
2022-08-14T23:54:48.097Z,13.15
2022-08-14T23:57:03.151Z,12.15
2022-08-14T23:59:31.572Z,12.52
